Latest Weather Observations for Hillarys Point Boat Harbour

IDW60801

Issued at 9:23 am WST Tuesday 22 September 2020 (issued every 10 minutes, with the page automatically refreshed every 10 minutes)

About weather observations | Map of weather stations | Latest weather observations for WA | Other Formats
Station Details ID: 009265 Name: HILLARYS BOAT HARBOUR NTC AWS Lat: -31.83 Lon: 115.74 Height: 0.0 m
Data from the previous 72 hours. | See also: Recent months for locations in Western Australia
Date/Time
WST
Temp
°C
App
Temp
°C
Dew
Point
°C
Rel
Hum
%
Delta-T
°C
Wind Press
QNH
hPa
Press
MSL
hPa
Rain since
9am
mm
Dir  Spd
km/h
Gust
km/h
Spd
kts
Gust
kts
22/09:00am 15.5 - - - - WNW 4 6 2 3 1023.6 1023.6 -
22/08:30am 14.5 - - - - SW 13 24 7 13 1023.7 1023.7 -
22/08:00am 15.3 - - - - SSW 11 22 6 12 1023.5 1023.5 -
22/07:30am 14.6 - - - - ESE 6 17 3 9 1023.1 1023.1 -
22/07:00am 16.7 - - - - WSW 19 24 10 13 1022.6 1022.6 -
22/06:30am 16.2 - - - - SW 17 24 9 13 1022.3 1022.3 -
22/06:00am 16.7 - - - - WSW 17 24 9 13 1022.0 1022.0 -
22/05:30am 16.7 - - - - WSW 17 20 9 11 1021.8 1021.8 -
22/05:00am 16.6 - - - - WSW 22 32 12 17 1021.6 1021.6 -
22/04:30am 16.8 - - - - WSW 20 26 11 14 1021.3 1021.3 -
22/04:00am 16.9 - - - - WSW 19 26 10 14 1021.3 1021.3 -
22/03:30am 16.6 - - - - WSW 17 28 9 15 1021.2 1021.2 -
22/03:00am 16.5 - - - - WSW 19 28 10 15 1021.4 1021.4 -
22/02:30am 16.4 - - - - WSW 19 24 10 13 1021.5 1021.5 -
22/02:00am 16.4 - - - - WSW 20 26 11 14 1021.5 1021.5 -
22/01:30am 15.9 - - - - WSW 9 15 5 8 1021.6 1021.6 -
22/01:00am 15.7 - - - - SW 17 26 9 14 1021.8 1021.8 -
22/12:30am 15.7 - - - - SW 24 35 13 19 1021.8 1021.8 -
22/12:00am 16.4 - - - - WSW 15 22 8 12 1021.8 1021.8 -
 
Date/Time
WST
Temp
°C
App
Temp
°C
Dew
Point
°C
Rel
Hum
%
Delta-T
°C
Wind Press
QNH
hPa
Press
MSL
hPa
Rain since
9am
mm
Dir  Spd
km/h
Gust
km/h
Spd
kts
Gust
kts
21/11:30pm 16.3 - - - - WSW 17 20 9 11 1021.8 1021.8 -
21/11:00pm 16.3 - - - - WSW 15 22 8 12 1022.0 1022.0 -
21/10:30pm 13.7 - - - - NNE 4 6 2 3 1022.3 1022.3 -
21/10:00pm 13.9 - - - - NE 6 7 3 4 1022.5 1022.5 -
21/09:30pm 13.9 - - - - NE 4 6 2 3 1022.7 1022.7 -
21/09:00pm 13.9 - - - - SSW 9 20 5 11 1023.0 1023.0 -
21/08:30pm 15.7 - - - - WSW 15 20 8 11 1023.0 1023.0 -
21/08:00pm 14.7 - - - - W 4 7 2 4 1023.0 1023.0 -
21/07:30pm 14.4 - - - - CALM 0 4 0 2 1022.7 1022.7 -
21/07:00pm 14.2 - - - - WSW 11 20 6 11 1022.4 1022.4 -
21/06:30pm 15.5 - - - - S 7 22 4 12 1022.3 1022.3 -
21/06:00pm 14.3 - - - - ESE 4 9 2 5 1022.2 1022.2 -
21/05:30pm 14.9 - - - - WSW 11 15 6 8 1022.2 1022.2 -
21/05:00pm 14.8 - - - - WSW 9 17 5 9 1022.0 1022.0 -
21/04:30pm 14.7 - - - - SW 24 35 13 19 1021.9 1021.9 -
21/04:00pm 15.9 - - - - WSW 13 24 7 13 1021.7 1021.7 -
21/03:30pm 15.2 - - - - SW 17 28 9 15 1021.7 1021.7 -
21/03:00pm 16.1 - - - - SSW 7 13 4 7 1021.5 1021.5 -
21/02:30pm 16.5 - - - - SSW 9 17 5 9 1021.6 1021.6 -
21/02:00pm 16.2 - - - - SSW 9 17 5 9 1021.7 1021.7 -
21/01:30pm 16.4 - - - - SSW 11 19 6 10 1021.8 1021.8 -
21/01:00pm 16.0 - - - - SSW 7 17 4 9 1022.0 1022.0 -
21/12:30pm 15.9 - - - - SSW 9 17 5 9 1022.0 1022.0 -
21/12:00pm 15.9 - - - - S 7 22 4 12 1022.2 1022.2 -
21/11:30am 15.7 - - - - SSW 13 24 7 13 1022.2 1022.2 -
21/11:00am 16.0 - - - - SSW 11 22 6 12 1022.2 1022.2 -
21/10:30am 16.2 - - - - SSW 7 17 4 9 1022.2 1022.2 -
21/10:00am 15.7 - - - - S 7 17 4 9 1022.3 1022.3 -
21/09:30am 15.3 - - - - S 7 17 4 9 1022.3 1022.3 -
21/09:00am 14.8 - - - - SSE 7 13 4 7 1022.0 1022.0 -
21/08:30am 14.3 - - - - SE 4 11 2 6 1021.9 1021.9 -
21/08:00am 14.8 - - - - SSW 19 32 10 17 1021.8 1021.8 -
21/07:30am 14.4 - - - - S 11 30 6 16 1021.4 1021.4 -
21/07:00am 14.3 - - - - SSW 15 28 8 15 1021.2 1021.2 -
21/06:30am 14.6 - - - - SSW 24 43 13 23 1020.9 1020.9 -
21/06:00am 15.0 - - - - SSW 17 33 9 18 1020.7 1020.7 -
21/05:30am 14.8 - - - - SSW 19 37 10 20 1020.5 1020.5 -
21/05:00am 14.7 - - - - SSW 17 32 9 17 1020.2 1020.2 -
21/04:30am 14.9 - - - - SSW 20 39 11 21 1020.0 1020.0 -
21/04:00am 14.8 - - - - SSW 13 26 7 14 1019.9 1019.9 -
21/03:30am 14.8 - - - - SSW 17 33 9 18 1019.6 1019.6 -
21/03:00am 14.8 - - - - SSW 15 33 8 18 1019.6 1019.6 -
21/02:30am 14.7 - - - - SSW 19 37 10 20 1020.0 1020.0 -
21/02:00am 14.6 - - - - SSW 19 32 10 17 1020.1 1020.1 -
21/01:30am 14.6 - - - - SSW 20 37 11 20 1020.2 1020.2 -
21/01:00am 14.8 - - - - SSW 17 30 9 16 1020.1 1020.1 -
21/12:30am 14.7 - - - - SSW 22 37 12 20 1020.2 1020.2 -
21/12:00am 14.7 - - - - SSW 24 43 13 23 1020.3 1020.3 -
 
Date/Time
WST
Temp
°C
App
Temp
°C
Dew
Point
°C
Rel
Hum
%
Delta-T
°C
Wind Press
QNH
hPa
Press
MSL
hPa
Rain since
9am
mm
Dir  Spd
km/h
Gust
km/h
Spd
kts
Gust
kts
20/11:30pm 15.0 - - - - SSW 22 39 12 21 1020.1 1020.1 -
20/11:00pm 14.7 - - - - SSW 24 46 13 25 1020.2 1020.2 -
20/10:30pm 14.9 - - - - SSW 22 39 12 21 1020.2 1020.2 -
20/10:00pm 14.9 - - - - SSW 20 41 11 22 1020.2 1020.2 -
20/09:30pm 14.8 - - - - SSW 22 39 12 21 1020.2 1020.2 -
20/09:00pm 14.9 - - - - SSW 22 39 12 21 1020.1 1020.1 -
20/08:30pm 14.9 - - - - SSW 19 37 10 20 1019.9 1019.9 -
20/08:00pm 14.9 - - - - SSW 22 37 12 20 1019.7 1019.7 -
20/07:30pm 14.8 - - - - SW 20 39 11 21 1019.5 1019.5 -
20/07:00pm 13.6 - - - - SW 33 57 18 31 1019.4 1019.4 -
20/06:45pm 14.6 - - - - SSW 28 56 15 30 1018.9 1018.9 -
20/06:30pm 14.4 - - - - SW 26 48 14 26 1018.8 1018.8 -
20/06:00pm 14.7 - - - - SSW 26 43 14 23 1018.5 1018.5 -
20/05:55pm 14.6 - - - - SW 32 50 17 27 1018.4 1018.4 -
20/05:30pm 14.6 - - - - WSW 37 50 20 27 1018.2 1018.2 -
20/05:04pm 15.0 - - - - SW 30 50 16 27 1017.9 1017.9 -
20/05:00pm 14.7 - - - - SW 32 50 17 27 1018.0 1018.0 -
20/04:32pm 15.7 - - - - SW 35 54 19 29 1017.7 1017.7 -
20/04:30pm 15.8 - - - - SW 35 46 19 25 1017.5 1017.5 -
20/04:03pm 15.6 - - - - SW 32 52 17 28 1017.4 1017.4 -
20/04:00pm 15.5 - - - - SW 32 50 17 27 1017.3 1017.3 -
20/03:30pm 15.6 - - - - SW 35 59 19 32 1017.2 1017.2 -
20/03:00pm 14.5 - - - - SW 39 57 21 31 1017.2 1017.2 -
20/02:35pm 15.7 - - - - SW 28 48 15 26 1017.0 1017.0 -
20/02:30pm 15.3 - - - - SW 28 43 15 23 1017.0 1017.0 -
20/02:03pm 15.4 - - - - SW 41 61 22 33 1017.0 1017.0 -
20/02:00pm 15.6 - - - - SW 41 57 22 31 1016.9 1016.9 -
20/01:30pm 14.6 - - - - SW 41 82 22 44 1016.8 1016.8 -
20/01:27pm 15.6 - - - - WSW 39 82 21 44 1016.7 1016.7 -
20/01:00pm 15.8 - - - - SW 35 54 19 29 1016.8 1016.8 -
20/12:33pm 15.5 - - - - SW 35 56 19 30 1016.8 1016.8 -
20/12:30pm 15.7 - - - - SW 37 54 20 29 1016.8 1016.8 -
20/12:00pm 15.0 - - - - WSW 39 63 21 34 1016.9 1016.9 -
20/11:41am 15.4 - - - - SW 30 48 16 26 1016.8 1016.8 -
20/11:30am 14.3 - - - - SW 32 46 17 25 1016.8 1016.8 -
20/11:11am 15.3 - - - - SW 30 50 16 27 1016.7 1016.7 -
20/11:00am 13.7 - - - - WSW 39 57 21 31 1016.8 1016.8 -
20/10:57am 13.5 - - - - WSW 46 82 25 44 1016.9 1016.9 -
20/10:50am 12.4 - - - - WSW 46 82 25 44 1017.0 1017.0 -
20/10:49am 13.6 - - - - WSW 44 82 24 44 1016.9 1016.9 -
20/10:30am 15.5 - - - - SW 43 67 23 36 1016.5 1016.5 -
20/10:00am 14.6 - - - - WSW 41 67 22 36 1016.4 1016.4 -
20/09:38am 15.5 - - - - SW 39 59 21 32 1016.1 1016.1 -
20/09:30am 15.0 - - - - SW 39 56 21 30 1016.0 1016.0 -
20/09:00am 13.5 - - - - SW 43 69 23 37 1015.9 1015.9 -
20/08:30am 13.6 - - - - SW 33 54 18 29 1015.6 1015.6 -
20/08:00am 14.6 - - - - SW 41 63 22 34 1015.1 1015.1 -
20/07:51am 14.0 - - - - SW 41 69 22 37 1014.9 1014.9 -
20/07:30am 14.0 - - - - WSW 43 61 23 33 1014.6 1014.6 -
20/07:00am 14.1 - - - - SW 44 67 24 36 1014.1 1014.1 -
20/06:30am 13.7 - - - - SW 46 65 25 35 1013.9 1013.9 -
20/06:00am 13.5 - - - - WSW 52 74 28 40 1013.7 1013.7 -
20/05:30am 13.7 - - - - WSW 44 63 24 34 1013.3 1013.3 -
20/05:00am 14.5 - - - - WSW 46 69 25 37 1013.0 1013.0 -
20/04:32am 13.9 - - - - WSW 43 61 23 33 1012.9 1012.9 -
20/04:30am 14.1 - - - - WSW 44 61 24 33 1012.9 1012.9 -
20/04:06am 14.4 - - - - WSW 48 67 26 36 1012.9 1012.9 -
20/04:00am 14.3 - - - - WSW 50 67 27 36 1012.8 1012.8 -
20/03:33am 14.5 - - - - WSW 46 70 25 38 1012.7 1012.7 -
20/03:30am 14.6 - - - - WSW 44 63 24 34 1012.7 1012.7 -
20/03:00am 14.4 - - - - WSW 50 70 27 38 1012.7 1012.7 -
20/02:30am 13.7 - - - - SW 44 65 24 35 1012.8 1012.8 -
20/02:00am 13.1 - - - - SW 43 65 23 35 1013.1 1013.1 -
20/01:55am 12.9 - - - - SW 41 69 22 37 1013.2 1013.2 -
20/01:48am 12.9 - - - - WSW 59 89 32 48 1013.1 1013.1 -
20/01:38am 13.5 - - - - WSW 56 93 30 50 1013.1 1013.1 -
20/01:32am 14.5 - - - - WSW 46 69 25 37 1013.0 1013.0 -
20/01:30am 14.2 - - - - WSW 46 63 25 34 1013.1 1013.1 -
20/01:00am 14.0 - - - - WSW 54 76 29 41 1013.3 1013.3 -
20/12:30am 14.4 - - - - WSW 54 74 29 40 1013.3 1013.3 -
20/12:00am 14.4 - - - - WSW 44 63 24 34 1013.3 1013.3 -
 
Date/Time
WST
Temp
°C
App
Temp
°C
Dew
Point
°C
Rel
Hum
%
Delta-T
°C
Wind Press
QNH
hPa
Press
MSL
hPa
Rain since
9am
mm
Dir  Spd
km/h
Gust
km/h
Spd
kts
Gust
kts
19/11:32pm 13.7 - - - - WSW 44 63 24 34 1013.5 1013.5 -
19/11:30pm 14.0 - - - - WSW 46 63 25 34 1013.4 1013.4 -
19/11:00pm 13.2 - - - - SW 50 72 27 39 1013.5 1013.5 -
19/10:31pm 13.1 - - - - SW 43 69 23 37 1013.6 1013.6 -
19/10:30pm 13.0 - - - - SW 43 61 23 33 1013.6 1013.6 -
19/10:00pm 13.6 - - - - SW 43 69 23 37 1013.6 1013.6 -
19/09:30pm 14.0 - - - - SW 39 69 21 37 1013.3 1013.3 -
19/09:00pm 12.8 - - - - SW 52 89 28 48 1013.3 1013.3 -
19/08:56pm 13.4 - - - - SW 46 89 25 48 1013.3 1013.3 -
19/08:30pm 12.3 - - - - SW 41 67 22 36 1013.2 1013.2 -
19/08:24pm 13.7 - - - - SW 32 52 17 28 1013.0 1013.0 -
19/08:10pm 12.8 - - - - SW 43 96 23 52 1013.0 1013.0 -
19/08:00pm 14.2 - - - - WSW 56 95 30 51 1013.0 1013.0 -
19/07:30pm 14.4 - - - - WSW 50 70 27 38 1012.5 1012.5 -
19/07:00pm 14.4 - - - - WSW 54 76 29 41 1012.0 1012.0 -
19/06:30pm 13.5 - - - - SW 56 83 30 45 1011.9 1011.9 -
19/06:20pm 13.7 - - - - WSW 56 91 30 49 1011.9 1011.9 -
19/06:19pm 13.5 - - - - WSW 54 91 29 49 1011.9 1011.9 -
19/06:01pm 14.6 - - - - WSW 50 76 27 41 1011.6 1011.6 -
19/06:00pm 14.7 - - - - WSW 48 65 26 35 1011.6 1011.6 -
19/05:30pm 14.5 - - - - WSW 50 74 27 40 1011.6 1011.6 -
19/05:00pm 15.1 - - - - W 43 65 23 35 1011.2 1011.2 -
19/04:30pm 15.9 - - - - WSW 50 72 27 39 1010.7 1010.7 -
19/04:00pm 15.5 - - - - WSW 54 76 29 41 1010.2 1010.2 -
19/03:30pm 15.6 - - - - WSW 48 70 26 38 1010.0 1010.0 -
19/03:00pm 15.9 - - - - WSW 43 67 23 36 1009.9 1009.9 -
19/02:30pm 15.9 - - - - WSW 43 61 23 33 1009.8 1009.8 -
19/02:18pm 14.9 - - - - WSW 43 69 23 37 1009.8 1009.8 -
19/02:14pm 14.8 - - - - WSW 39 69 21 37 1009.9 1009.9 -
19/02:05pm 15.5 - - - - WSW 33 54 18 29 1009.7 1009.7 -
19/02:00pm 15.0 - - - - WSW 33 52 18 28 1009.7 1009.7 -
19/01:47pm 13.6 - - - - WSW 46 74 25 40 1009.9 1009.9 -
19/01:46pm 13.8 - - - - WSW 44 74 24 40 1009.9 1009.9 -
19/01:43pm 15.6 - - - - WSW 37 74 20 40 1009.9 1009.9 -
19/01:41pm 16.1 - - - - WSW 33 54 18 29 1009.7 1009.7 -
19/01:30pm 15.4 - - - - WSW 43 57 23 31 1009.6 1009.6 -
19/01:00pm 16.1 - - - - WSW 33 54 18 29 1009.5 1009.5 -
19/12:40pm 15.5 - - - - WSW 28 56 15 30 1009.6 1009.6 -
19/12:30pm 15.4 - - - - WSW 24 50 13 27 1009.6 1009.6 -
19/12:05pm 15.9 - - - - WSW 32 50 17 27 1010.0 1010.0 -
19/12:00pm 15.9 - - - - WSW 37 50 20 27 1009.9 1009.9 -
19/11:47am 15.9 - - - - WSW 33 54 18 29 1010.0 1010.0 -
19/11:30am 16.0 - - - - WSW 37 48 20 26 1009.9 1009.9 -
19/11:00am 16.1 - - - - WSW 35 48 19 26 1010.0 1010.0 -
19/10:30am 16.2 - - - - SW 32 44 17 24 1010.0 1010.0 -
19/10:08am 16.4 - - - - WSW 33 54 18 29 1009.9 1009.9 -
19/10:00am 16.2 - - - - WSW 33 46 18 25 1009.8 1009.8 -
19/09:30am 16.1 - - - - SW 32 50 17 27 1009.7 1009.7 -
19/09:29am 16.1 - - - - SW 32 50 17 27 1009.7 1009.7 -

Other formats

Comma delimited format used in spreadsheet applications
http://www.bom.gov.au/fwo/IDW60801/IDW60801.95605.axf

JavaScript Object Notation format (JSON) in row-major order
http://www.bom.gov.au/fwo/IDW60801/IDW60801.95605.json

Data quality

Most of these data are generated automatically and are frequently updated. Quality checks on data are not normally performed. It is possible for incorrect values to appear. Refer to information at About Latest Weather Observations and please check the disclaimer before using these data.